createdAt,value
2023-03-20T00:02:24.044Z,25.00
2023-03-20T00:04:55.748Z,20.70
2023-03-20T00:07:25.101Z,18.20
2023-03-20T00:10:02.742Z,19.80
2023-03-20T00:12:51.977Z,21.70
2023-03-20T00:15:35.830Z,24.20
2023-03-20T00:18:05.193Z,22.20
2023-03-20T00:20:42.043Z,21.20
2023-03-20T00:23:13.793Z,19.90
2023-03-20T00:25:42.447Z,25.00
2023-03-20T00:28:34.969Z,21.40
2023-03-20T00:31:05.137Z,29.90
2023-03-20T00:33:33.166Z,33.80
2023-03-20T00:36:01.845Z,30.70
2023-03-20T00:38:33.364Z,24.30
2023-03-20T00:41:02.503Z,24.80
2023-03-20T00:43:32.623Z,25.20
2023-03-20T00:46:04.074Z,25.40
2023-03-20T00:48:33.173Z,24.90
2023-03-20T00:51:01.468Z,24.70
2023-03-20T00:53:29.691Z,28.30
2023-03-20T00:55:58.105Z,31.00
2023-03-20T00:58:32.021Z,23.80
2023-03-20T01:01:01.678Z,32.20
2023-03-20T01:03:32.234Z,29.00
2023-03-20T01:06:00.282Z,27.60
2023-03-20T01:08:30.094Z,27.60
2023-03-20T01:10:59.063Z,32.30
2023-03-20T01:13:28.546Z,25.00
2023-03-20T01:15:58.280Z,24.40
2023-03-20T01:18:27.478Z,25.90
2023-03-20T01:20:55.971Z,29.20
2023-03-20T01:23:27.019Z,24.30
2023-03-20T01:26:01.383Z,28.70
2023-03-20T01:28:29.772Z,24.10
2023-03-20T01:30:57.964Z,27.70
2023-03-20T01:33:47.006Z,23.00
2023-03-20T01:36:16.440Z,26.60
2023-03-20T01:38:44.637Z,23.80
2023-03-20T01:41:18.344Z,21.40
2023-03-20T01:43:46.580Z,19.70
2023-03-20T01:46:20.015Z,26.00
2023-03-20T01:48:50.281Z,24.10
2023-03-20T01:51:24.461Z,26.20
2023-03-20T01:53:55.296Z,19.80
2023-03-20T01:56:30.686Z,20.50
2023-03-20T01:59:03.679Z,25.20
2023-03-20T02:01:32.172Z,21.80
2023-03-20T02:04:01.452Z,21.50
2023-03-20T02:06:51.510Z,25.50
2023-03-20T02:09:37.860Z,23.40
2023-03-20T02:12:11.134Z,18.40
2023-03-20T02:14:39.533Z,28.30
2023-03-20T02:17:24.289Z,27.40
2023-03-20T02:20:28.749Z,21.50
2023-03-20T02:23:31.732Z,25.30
2023-03-20T02:26:22.799Z,29.00
2023-03-20T02:29:18.732Z,24.90
2023-03-20T02:31:54.423Z,26.80
2023-03-20T02:34:46.308Z,26.10
2023-03-20T02:37:38.983Z,25.70
2023-03-20T02:40:46.346Z,24.00
2023-03-20T02:43:38.187Z,22.40
2023-03-20T02:46:18.786Z,18.40
2023-03-20T02:48:55.843Z,25.60
2023-03-20T02:51:32.285Z,27.90
2023-03-20T02:56:51.600Z,24.50
2023-03-20T02:59:41.583Z,27.30
2023-03-20T03:02:14.294Z,29.70
2023-03-20T03:04:47.659Z,25.80
2023-03-20T03:07:18.175Z,22.40
2023-03-20T03:09:58.532Z,31.70
2023-03-20T03:12:36.507Z,21.60
2023-03-20T03:15:16.487Z,28.20
2023-03-20T03:17:49.337Z,23.80
2023-03-20T03:20:35.172Z,25.40
2023-03-20T03:23:03.849Z,26.90
2023-03-20T03:25:37.654Z,29.40
2023-03-20T03:28:09.722Z,25.30
2023-03-20T03:30:38.716Z,31.20
2023-03-20T03:33:47.232Z,26.10
2023-03-20T03:36:36.422Z,29.30
2023-03-20T03:39:07.952Z,26.40
2023-03-20T03:41:45.972Z,25.70
2023-03-20T03:44:27.140Z,18.00
2023-03-20T03:47:02.939Z,25.30
2023-03-20T03:49:33.389Z,24.70
2023-03-20T03:52:13.916Z,23.30
2023-03-20T03:55:06.911Z,21.50
2023-03-20T03:57:38.144Z,22.10
2023-03-20T04:00:13.816Z,29.80
2023-03-20T04:02:43.584Z,23.50
2023-03-20T04:05:17.431Z,27.00
2023-03-20T04:07:47.893Z,25.00
2023-03-20T04:10:16.188Z,25.80
2023-03-20T04:12:55.496Z,25.90
2023-03-20T04:15:23.673Z,26.00
2023-03-20T04:17:52.062Z,28.90
2023-03-20T04:20:20.433Z,35.10
2023-03-20T04:22:49.245Z,33.30
2023-03-20T04:25:22.725Z,24.40
2023-03-20T04:27:54.091Z,31.40
2023-03-20T04:30:33.916Z,31.10
2023-03-20T04:33:29.275Z,26.10
2023-03-20T04:36:06.633Z,30.90
2023-03-20T04:50:30.473Z,31.80
2023-03-20T04:53:00.517Z,29.80
2023-03-20T04:55:29.998Z,33.80
2023-03-20T04:57:58.290Z,35.30
2023-03-20T05:00:27.652Z,46.40
2023-03-20T05:02:56.365Z,30.90
2023-03-20T05:05:25.869Z,20.00
2023-03-20T05:08:01.009Z,22.40
2023-03-20T05:10:37.677Z,27.70
2023-03-20T05:13:34.794Z,25.20
2023-03-20T05:16:23.015Z,23.10
2023-03-20T05:19:07.195Z,30.10
2023-03-20T05:21:55.939Z,26.50
2023-03-20T05:24:50.789Z,26.10
2023-03-20T05:27:38.205Z,29.40
2023-03-20T05:30:25.450Z,24.80
2023-03-20T05:32:59.910Z,29.70
2023-03-20T05:35:28.147Z,33.30
2023-03-20T05:38:13.399Z,34.10
2023-03-20T05:40:47.215Z,33.70
2023-03-20T05:43:29.453Z,30.90
2023-03-20T05:46:26.472Z,37.40
2023-03-20T05:49:18.116Z,31.70
2023-03-20T05:52:05.584Z,29.00
2023-03-20T05:54:44.274Z,27.20
2023-03-20T05:57:48.261Z,27.10
2023-03-20T06:00:48.985Z,26.70
2023-03-20T06:03:49.009Z,38.10
2023-03-20T06:06:18.820Z,32.80
2023-03-20T06:08:50.044Z,40.30
2023-03-20T06:11:19.125Z,26.50
2023-03-20T06:13:47.992Z,29.70
2023-03-20T06:16:16.495Z,46.90
2023-03-20T06:18:46.688Z,32.40
2023-03-20T06:21:15.969Z,24.70
2023-03-20T06:23:44.460Z,47.40
2023-03-20T06:26:13.236Z,28.50
2023-03-20T06:28:53.134Z,26.90
2023-03-20T06:31:22.187Z,47.20
2023-03-20T06:33:51.161Z,28.00
2023-03-20T06:36:19.749Z,23.10
2023-03-20T06:38:51.918Z,23.30
2023-03-20T06:41:33.764Z,24.70
2023-03-20T06:44:09.153Z,47.80
2023-03-20T06:46:56.650Z,25.90
2023-03-20T06:49:25.775Z,51.80
2023-03-20T06:51:54.262Z,48.50
2023-03-20T06:54:27.356Z,29.10
2023-03-20T06:56:56.348Z,51.90
2023-03-20T06:59:24.461Z,26.00
2023-03-20T07:01:57.426Z,48.60
2023-03-20T07:04:26.619Z,48.80
2023-03-20T07:07:01.735Z,41.80
2023-03-20T07:09:30.552Z,48.60
2023-03-20T07:11:58.915Z,47.60
2023-03-20T07:14:32.092Z,31.60
2023-03-20T07:17:05.801Z,46.90
2023-03-20T07:19:38.144Z,41.80
2023-03-20T07:22:08.607Z,46.10
2023-03-20T07:24:40.793Z,46.80
2023-03-20T07:27:14.689Z,45.60
2023-03-20T07:29:44.196Z,47.40
2023-03-20T07:32:14.423Z,45.70
2023-03-20T07:34:51.445Z,45.50
2023-03-20T07:37:21.149Z,44.60
2023-03-20T07:40:01.879Z,32.80
2023-03-20T07:42:56.663Z,36.40
2023-03-20T07:45:44.076Z,53.20
2023-03-20T07:48:13.184Z,46.20
2023-03-20T07:50:41.472Z,40.70
2023-03-20T07:53:10.872Z,41.20
2023-03-20T07:55:40.171Z,39.30
2023-03-20T07:58:11.412Z,38.00
2023-03-20T08:00:41.536Z,36.50
2023-03-20T08:03:10.244Z,37.80
2023-03-20T08:05:38.953Z,32.20
2023-03-20T08:08:08.112Z,29.70
2023-03-20T08:10:36.481Z,31.60
2023-03-20T08:13:05.316Z,34.00
2023-03-20T08:15:33.766Z,30.20
2023-03-20T08:18:02.187Z,28.60
2023-03-20T08:20:31.793Z,27.80
2023-03-20T08:23:00.640Z,24.60
2023-03-20T08:25:34.924Z,22.90
2023-03-20T08:28:03.946Z,25.90
2023-03-20T08:30:32.372Z,24.00
2023-03-20T08:33:02.512Z,21.30
2023-03-20T08:35:45.572Z,21.50
2023-03-20T08:38:15.815Z,14.70
2023-03-20T08:40:44.381Z,17.60
2023-03-20T08:43:12.758Z,15.80
2023-03-20T08:45:44.125Z,19.30
2023-03-20T08:48:13.308Z,20.40
2023-03-20T08:50:44.967Z,18.40
2023-03-20T08:53:13.382Z,15.70
2023-03-20T08:55:49.274Z,17.50
2023-03-20T08:58:18.524Z,20.50
2023-03-20T09:00:46.933Z,21.70
2023-03-20T09:03:16.478Z,18.20
2023-03-20T09:05:46.703Z,20.00
2023-03-20T09:08:15.181Z,20.60
2023-03-20T09:10:44.757Z,19.00
2023-03-20T09:13:26.589Z,21.60
2023-03-20T09:15:56.097Z,19.60
2023-03-20T09:18:24.594Z,16.90
2023-03-20T09:20:52.955Z,16.40
2023-03-20T09:23:21.332Z,15.50
2023-03-20T09:25:51.450Z,15.60
2023-03-20T09:28:20.480Z,17.90
2023-03-20T09:30:49.209Z,19.10
2023-03-20T09:33:18.944Z,14.30
2023-03-20T09:35:47.775Z,16.50
2023-03-20T09:38:16.164Z,14.30
2023-03-20T09:41:09.918Z,15.70
2023-03-20T09:43:54.144Z,13.70
2023-03-20T09:46:49.859Z,13.90
2023-03-20T09:49:52.973Z,16.30
2023-03-20T09:52:31.057Z,15.50
2023-03-20T09:55:02.755Z,18.10
2023-03-20T09:57:41.955Z,19.70
2023-03-20T10:00:25.112Z,20.40
2023-03-20T10:02:58.995Z,21.10
2023-03-20T10:05:36.361Z,18.70
2023-03-20T10:08:07.229Z,23.90
2023-03-20T10:10:46.429Z,24.40
2023-03-20T10:13:33.267Z,21.70
2023-03-20T10:16:08.522Z,16.50
2023-03-20T10:18:38.605Z,19.50
2023-03-20T10:21:15.906Z,21.30
2023-03-20T10:24:03.662Z,20.70
2023-03-20T10:26:34.751Z,17.60
2023-03-20T10:29:25.598Z,16.00
2023-03-20T10:32:42.074Z,17.60
2023-03-20T10:35:21.647Z,19.00
2023-03-20T10:38:13.346Z,16.10
2023-03-20T10:40:43.175Z,14.40
2023-03-20T10:43:21.780Z,18.50
2023-03-20T10:45:54.283Z,13.30
2023-03-20T10:48:41.180Z,16.30
2023-03-20T10:51:14.717Z,16.00
2023-03-20T10:53:43.318Z,13.50
2023-03-20T10:56:27.055Z,16.20
2023-03-20T10:59:04.604Z,13.90
2023-03-20T11:01:37.806Z,14.00
2023-03-20T11:04:07.628Z,14.80
2023-03-20T11:06:43.511Z,18.00
2023-03-20T11:11:52.608Z,15.00
2023-03-20T11:14:26.115Z,13.60
2023-03-20T11:16:55.870Z,13.40
2023-03-20T11:19:24.202Z,12.30
2023-03-20T11:21:58.205Z,13.60
2023-03-20T11:24:38.578Z,14.80
2023-03-20T11:27:24.667Z,15.80
2023-03-20T11:29:53.162Z,15.50
2023-03-20T11:32:29.463Z,17.70
2023-03-20T11:35:11.126Z,14.30
2023-03-20T11:37:44.705Z,13.90
2023-03-20T11:40:12.884Z,14.50
2023-03-20T11:42:56.200Z,12.00
2023-03-20T11:45:25.823Z,13.40
2023-03-20T11:47:57.291Z,13.90
2023-03-20T11:50:38.305Z,14.40
2023-03-20T11:53:27.140Z,12.40
2023-03-20T11:56:08.489Z,11.80
2023-03-20T11:59:12.600Z,15.10
2023-03-20T12:01:52.557Z,12.80
2023-03-20T12:04:32.708Z,12.70
2023-03-20T12:07:21.158Z,13.10
2023-03-20T12:10:00.395Z,12.50
2023-03-20T12:13:13.155Z,10.80
2023-03-20T12:15:45.024Z,12.50
2023-03-20T12:18:33.034Z,10.60
2023-03-20T12:21:12.782Z,13.30
2023-03-20T12:23:48.068Z,12.40
2023-03-20T12:26:37.779Z,14.90
2023-03-20T12:29:11.281Z,11.30
2023-03-20T12:31:57.373Z,11.40
2023-03-20T12:34:38.555Z,12.80
2023-03-20T12:37:09.860Z,13.20
2023-03-20T12:39:41.585Z,12.00
2023-03-20T12:42:31.361Z,11.80
2023-03-20T12:45:18.821Z,11.20
2023-03-20T12:47:50.833Z,11.70
2023-03-20T12:50:33.463Z,14.80
2023-03-20T12:53:08.605Z,12.50
2023-03-20T12:56:05.656Z,11.90
2023-03-20T12:58:40.405Z,11.50
2023-03-20T13:01:21.056Z,11.00
2023-03-20T13:04:04.838Z,11.90
2023-03-20T13:06:55.684Z,13.50
2023-03-20T13:09:28.843Z,10.70
2023-03-20T13:12:21.452Z,10.80
2023-03-20T13:15:21.868Z,11.60
2023-03-20T13:18:04.773Z,13.90
2023-03-20T13:20:40.268Z,12.80
2023-03-20T13:23:23.582Z,13.00
2023-03-20T13:26:17.721Z,13.60
2023-03-20T13:29:01.054Z,14.00
2023-03-20T13:31:41.861Z,14.70
2023-03-20T13:34:30.051Z,16.80
2023-03-20T13:37:36.164Z,13.80
2023-03-20T13:42:54.788Z,15.50
2023-03-20T13:45:39.668Z,16.00
2023-03-20T13:48:34.160Z,16.70
2023-03-20T13:51:14.354Z,16.70
2023-03-20T13:53:42.967Z,16.40
2023-03-20T13:56:31.994Z,19.60
2023-03-20T13:59:29.841Z,17.10
2023-03-20T14:02:13.231Z,17.60
2023-03-20T14:04:41.582Z,18.10
2023-03-20T14:07:31.444Z,17.30
2023-03-20T14:10:31.655Z,19.10
2023-03-20T14:13:20.612Z,19.10
2023-03-20T14:15:55.252Z,19.90
2023-03-20T14:18:25.099Z,18.10
2023-03-20T14:21:01.164Z,17.90
2023-03-20T14:23:34.300Z,18.40
2023-03-20T14:26:26.846Z,23.90
2023-03-20T14:28:59.739Z,19.30
2023-03-20T14:31:34.474Z,21.40
2023-03-20T14:34:18.404Z,16.80
2023-03-20T14:37:05.891Z,19.50
2023-03-20T14:39:49.159Z,18.40
2023-03-20T14:42:42.421Z,18.30
2023-03-20T14:45:42.795Z,17.90
2023-03-20T14:48:32.919Z,16.60
2023-03-20T14:51:10.023Z,19.70
2023-03-20T14:53:40.352Z,16.60
2023-03-20T14:56:14.715Z,17.60
2023-03-20T14:58:43.885Z,18.30
2023-03-20T15:01:19.721Z,18.10
2023-03-20T15:03:57.780Z,18.50
2023-03-20T15:06:27.353Z,22.40
2023-03-20T15:09:01.146Z,18.70
2023-03-20T15:11:29.486Z,20.90
2023-03-20T15:14:06.396Z,20.50
2023-03-20T15:16:36.688Z,21.70
2023-03-20T15:19:09.401Z,19.80
2023-03-20T15:21:45.047Z,21.70
2023-03-20T15:24:23.977Z,20.60
2023-03-20T15:26:53.742Z,21.30
2023-03-20T15:29:21.747Z,24.60
2023-03-20T15:32:13.021Z,20.50
2023-03-20T15:34:43.098Z,20.90
2023-03-20T15:37:16.399Z,21.60
2023-03-20T15:39:51.960Z,21.10
2023-03-20T15:42:21.751Z,25.20
2023-03-20T15:44:52.047Z,22.40
2023-03-20T15:47:22.412Z,25.30
2023-03-20T15:50:03.780Z,25.20
2023-03-20T15:52:53.416Z,24.10
2023-03-20T15:55:23.386Z,24.90
2023-03-20T15:57:54.153Z,25.30
2023-03-20T16:00:26.800Z,26.10
2023-03-20T16:02:55.426Z,24.70
2023-03-20T16:05:25.863Z,25.10
2023-03-20T16:07:54.208Z,27.00
2023-03-20T16:10:30.164Z,24.00
2023-03-20T16:12:58.420Z,26.50
2023-03-20T16:15:28.059Z,28.50
2023-03-20T16:17:57.841Z,29.20
2023-03-20T16:20:27.965Z,28.70
2023-03-20T16:23:00.231Z,26.40
2023-03-20T16:25:28.409Z,29.70
2023-03-20T16:27:56.688Z,31.10
2023-03-20T16:30:27.840Z,29.20
2023-03-20T16:33:02.531Z,32.30
2023-03-20T16:35:39.169Z,30.80
2023-03-20T16:38:40.579Z,27.80
2023-03-20T16:41:28.109Z,30.70
2023-03-20T16:43:57.126Z,31.20
2023-03-20T16:46:26.690Z,29.00
2023-03-20T16:48:59.085Z,28.90
2023-03-20T16:51:29.210Z,30.70
2023-03-20T16:53:59.524Z,32.70
2023-03-20T16:58:15.197Z,31.30
2023-03-20T17:00:46.377Z,30.30
2023-03-20T17:03:17.108Z,31.90
2023-03-20T17:05:51.723Z,32.60
2023-03-20T17:08:35.990Z,34.70
2023-03-20T17:11:10.810Z,31.20
2023-03-20T17:13:39.505Z,31.10
2023-03-20T17:16:18.005Z,29.80
2023-03-20T17:18:47.115Z,32.10
2023-03-20T17:21:16.714Z,36.00
2023-03-20T17:23:45.000Z,32.40
2023-03-20T17:26:13.180Z,30.50
2023-03-20T17:28:42.631Z,35.10
2023-03-20T17:31:15.366Z,33.30
2023-03-20T17:33:49.013Z,32.50
2023-03-20T17:36:28.700Z,35.90
2023-03-20T17:38:57.281Z,36.30
2023-03-20T17:41:25.772Z,38.10
2023-03-20T17:43:54.789Z,37.50
2023-03-20T17:46:30.829Z,37.50
2023-03-20T17:49:14.866Z,39.40
2023-03-20T17:51:43.345Z,36.60
2023-03-20T17:54:13.369Z,43.10
2023-03-20T17:56:42.676Z,38.50
2023-03-20T17:59:12.876Z,38.30
2023-03-20T18:01:42.237Z,35.80
2023-03-20T18:04:10.452Z,34.40
2023-03-20T18:06:41.518Z,37.40
2023-03-20T18:09:13.680Z,39.40
2023-03-20T18:11:41.747Z,40.10
2023-03-20T18:14:18.238Z,36.80
2023-03-20T18:16:46.646Z,35.90
2023-03-20T18:19:28.478Z,41.60
2023-03-20T18:21:57.141Z,38.70
2023-03-20T18:24:26.691Z,37.00
2023-03-20T18:26:59.990Z,38.50
2023-03-20T18:29:28.254Z,32.70
2023-03-20T18:31:56.718Z,37.80
2023-03-20T18:34:27.274Z,35.40
2023-03-20T18:36:55.973Z,38.10
2023-03-20T18:39:29.458Z,39.00
2023-03-20T18:41:57.837Z,37.10
2023-03-20T18:44:25.907Z,37.60
2023-03-20T18:46:54.398Z,39.60
2023-03-20T18:49:22.779Z,36.70
2023-03-20T18:51:54.220Z,39.50
2023-03-20T18:54:22.549Z,36.10
2023-03-20T18:56:56.610Z,34.70
2023-03-20T18:59:25.006Z,34.60
2023-03-20T19:01:53.627Z,35.00
2023-03-20T19:04:27.332Z,30.40
2023-03-20T19:06:57.397Z,33.30
2023-03-20T19:09:26.102Z,35.60
2023-03-20T19:11:55.798Z,32.60
2023-03-20T19:14:25.848Z,34.20
2023-03-20T19:16:58.495Z,38.00
2023-03-20T19:19:30.664Z,39.30
2023-03-20T19:21:59.141Z,35.40
2023-03-20T19:24:27.935Z,25.70
2023-03-20T19:26:57.250Z,40.60
2023-03-20T19:29:25.623Z,43.60
2023-03-20T19:31:54.813Z,26.90
2023-03-20T19:35:00.887Z,47.10
2023-03-20T19:37:17.638Z,48.20
2023-03-20T19:39:46.263Z,71.00
2023-03-20T19:42:44.332Z,73.70
2023-03-20T19:45:23.044Z,39.20
2023-03-20T19:47:53.625Z,64.00
2023-03-20T19:50:35.383Z,37.60
2023-03-20T19:53:05.634Z,63.30
2023-03-20T19:55:34.439Z,42.50
2023-03-20T19:58:03.396Z,64.80
2023-03-20T20:00:56.962Z,67.20
2023-03-20T20:03:24.204Z,66.70
2023-03-20T20:06:00.120Z,69.20
2023-03-20T20:08:44.757Z,40.00
2023-03-20T20:11:15.666Z,36.50
2023-03-20T20:16:33.464Z,61.00
2023-03-20T20:19:03.228Z,57.00
2023-03-20T20:22:17.141Z,36.90
2023-03-20T20:24:22.207Z,60.70
2023-03-20T20:27:14.682Z,63.90
2023-03-20T20:29:46.925Z,33.50
2023-03-20T20:32:15.876Z,55.70
2023-03-20T20:38:27.008Z,35.30
2023-03-20T20:40:25.416Z,34.90
2023-03-20T20:42:56.349Z,52.00
2023-03-20T20:45:26.549Z,35.10
2023-03-20T20:47:55.034Z,53.20
2023-03-20T20:50:25.253Z,54.70
2023-03-20T20:52:56.942Z,28.80
2023-03-20T20:55:25.769Z,53.60
2023-03-20T20:57:55.532Z,53.20
2023-03-20T21:00:37.193Z,36.60
2023-03-20T21:03:10.196Z,54.70
2023-03-20T21:05:43.350Z,55.20
2023-03-20T21:08:13.645Z,35.30
2023-03-20T21:10:44.013Z,57.40
2023-03-20T21:13:15.197Z,41.70
2023-03-20T21:15:45.686Z,40.90
2023-03-20T21:20:47.546Z,34.30
2023-03-20T21:23:16.026Z,60.40
2023-03-20T21:25:47.842Z,34.00
2023-03-20T21:28:16.925Z,58.00
2023-03-20T21:31:12.601Z,52.90
2023-03-20T21:33:36.416Z,25.80
2023-03-20T21:36:06.131Z,28.40
2023-03-20T21:41:24.388Z,57.50
2023-03-20T21:43:52.667Z,52.90
2023-03-20T21:58:21.392Z,50.60
2023-03-20T22:03:35.148Z,26.60
2023-03-20T22:07:17.890Z,54.60
2023-03-20T22:12:30.275Z,55.40
2023-03-20T22:17:59.649Z,20.20
2023-03-20T22:26:51.402Z,26.50
2023-03-20T22:29:32.583Z,48.40
2023-03-20T22:35:12.842Z,29.00
2023-03-20T22:43:54.860Z,34.90
2023-03-20T22:46:03.409Z,58.10
2023-03-20T22:48:38.656Z,26.70
2023-03-20T22:51:08.092Z,32.90
2023-03-20T22:53:37.714Z,31.70
2023-03-20T22:56:07.519Z,58.70
2023-03-20T22:58:35.832Z,30.50
2023-03-20T23:01:04.217Z,25.60
2023-03-20T23:03:41.449Z,52.80
2023-03-20T23:06:21.316Z,26.10
2023-03-20T23:08:55.388Z,55.20
2023-03-20T23:11:26.571Z,54.70
2023-03-20T23:14:01.633Z,29.50
2023-03-20T23:16:30.971Z,39.10
2023-03-20T23:18:59.177Z,58.20
2023-03-20T23:21:32.372Z,30.00
2023-03-20T23:24:00.902Z,39.80
2023-03-20T23:26:29.136Z,56.50
2023-03-20T23:28:58.220Z,39.40
2023-03-20T23:31:27.143Z,33.70
2023-03-20T23:33:57.245Z,34.30
2023-03-20T23:36:42.493Z,32.50
2023-03-20T23:39:11.711Z,60.10
2023-03-20T23:44:30.479Z,28.20
2023-03-20T23:47:01.327Z,28.90
2023-03-20T23:49:32.155Z,21.40
2023-03-20T23:52:00.492Z,58.00
2023-03-20T23:54:28.709Z,54.10
2023-03-20T23:56:57.086Z,27.80
2023-03-20T23:59:25.569Z,56.70
